createdAt,value
2017-10-23T00:01:12.237Z,5.63
2017-10-23T00:03:39.669Z,5.30
2017-10-23T00:06:07.075Z,5.20
2017-10-23T00:08:34.508Z,5.05
2017-10-23T00:11:03.942Z,5.47
2017-10-23T00:13:31.405Z,5.47
2017-10-23T00:15:58.829Z,5.13
2017-10-23T00:18:26.254Z,4.73
2017-10-23T00:20:53.692Z,5.37
2017-10-23T00:23:21.092Z,4.70
2017-10-23T00:25:48.512Z,4.97
2017-10-23T00:28:15.925Z,5.00
2017-10-23T00:30:43.352Z,5.00
2017-10-23T00:33:10.765Z,4.40
2017-10-23T00:35:38.178Z,4.70
2017-10-23T00:38:05.593Z,4.23
2017-10-23T00:40:33.016Z,4.93
2017-10-23T00:43:00.442Z,4.93
2017-10-23T00:45:27.847Z,5.10
2017-10-23T00:47:55.266Z,4.85
2017-10-23T00:50:22.687Z,4.90
2017-10-23T00:52:50.105Z,5.10
2017-10-23T00:55:17.533Z,4.43
2017-10-23T00:57:44.940Z,4.37
2017-10-23T01:00:12.358Z,4.47
2017-10-23T01:02:41.114Z,5.10
2017-10-23T01:05:08.572Z,4.93
2017-10-23T01:07:36.013Z,4.47
2017-10-23T01:10:03.437Z,5.32
2017-10-23T01:12:30.857Z,4.20
2017-10-23T01:14:58.276Z,4.60
2017-10-23T01:17:25.706Z,5.67
2017-10-23T01:19:53.132Z,4.73
2017-10-23T01:22:20.545Z,5.93
2017-10-23T01:24:48.692Z,4.90
2017-10-23T01:27:16.123Z,4.80
2017-10-23T01:29:43.532Z,5.03
2017-10-23T01:32:10.966Z,4.80
2017-10-23T01:34:39.960Z,4.50
2017-10-23T01:37:07.370Z,4.60
2017-10-23T01:39:34.825Z,5.30
2017-10-23T01:42:02.233Z,4.60
2017-10-23T01:44:29.643Z,5.27
2017-10-23T01:46:57.073Z,4.60
2017-10-23T01:49:27.181Z,4.47
2017-10-23T01:51:54.600Z,4.77
2017-10-23T01:54:22.032Z,5.40
2017-10-23T01:56:49.451Z,5.07
2017-10-23T01:59:16.868Z,5.00
2017-10-23T02:01:44.297Z,4.73
2017-10-23T02:04:11.725Z,4.63
2017-10-23T02:06:39.144Z,5.57
2017-10-23T02:09:08.182Z,5.87
2017-10-23T02:11:35.608Z,5.60
2017-10-23T02:14:03.024Z,5.03
2017-10-23T02:16:30.452Z,5.10
2017-10-23T02:18:57.876Z,5.27
2017-10-23T02:21:25.329Z,5.73
2017-10-23T02:23:52.807Z,6.37
2017-10-23T02:26:20.226Z,6.43
2017-10-23T02:28:47.676Z,6.00
2017-10-23T02:31:15.148Z,5.30
2017-10-23T02:33:42.609Z,5.80
2017-10-23T02:36:10.038Z,6.10
2017-10-23T02:38:37.494Z,5.40
2017-10-23T02:41:04.904Z,5.33
2017-10-23T02:43:32.365Z,7.18
2017-10-23T02:45:59.776Z,6.10
2017-10-23T02:48:27.185Z,6.50
2017-10-23T02:50:54.620Z,6.03
2017-10-23T02:53:22.043Z,6.68
2017-10-23T02:55:49.454Z,6.63
2017-10-23T02:58:16.922Z,5.78
2017-10-23T03:00:44.345Z,5.55
2017-10-23T03:03:11.769Z,5.90
2017-10-23T03:05:39.221Z,5.60
2017-10-23T03:08:06.636Z,5.90
2017-10-23T03:10:34.054Z,5.50
2017-10-23T03:13:01.512Z,5.60
2017-10-23T03:15:28.926Z,5.90
2017-10-23T03:17:56.352Z,5.95
2017-10-23T03:20:23.787Z,6.53
2017-10-23T03:22:51.231Z,6.20
2017-10-23T03:25:18.652Z,5.80
2017-10-23T03:27:46.083Z,5.60
2017-10-23T03:30:13.497Z,5.80
2017-10-23T03:32:40.909Z,5.80
2017-10-23T03:35:08.357Z,6.07
2017-10-23T03:37:35.765Z,5.57
2017-10-23T03:40:03.185Z,6.07
2017-10-23T03:42:30.614Z,6.43
2017-10-23T03:44:58.041Z,6.97
2017-10-23T03:47:25.454Z,6.40
2017-10-23T03:49:52.897Z,6.53
2017-10-23T03:52:20.321Z,5.43
2017-10-23T03:54:47.736Z,6.13
2017-10-23T03:57:15.178Z,6.47
2017-10-23T03:59:42.600Z,6.60
2017-10-23T04:02:10.020Z,7.30
2017-10-23T04:04:37.453Z,7.00
2017-10-23T04:07:04.885Z,6.70
2017-10-23T04:09:32.307Z,6.40
2017-10-23T04:11:59.736Z,6.80
2017-10-23T04:14:27.164Z,8.00
2017-10-23T04:16:54.576Z,7.20
2017-10-23T04:19:22.016Z,6.12
2017-10-23T04:21:49.432Z,7.40
2017-10-23T04:24:16.861Z,7.07
2017-10-23T04:26:44.302Z,7.18
2017-10-23T04:29:11.723Z,6.25
2017-10-23T04:31:39.153Z,7.82
2017-10-23T04:34:06.592Z,6.65
2017-10-23T04:36:34.014Z,7.60
2017-10-23T04:39:01.444Z,7.05
2017-10-23T04:41:28.873Z,7.20
2017-10-23T04:43:56.288Z,7.20
2017-10-23T04:46:23.713Z,7.00
2017-10-23T04:48:51.140Z,6.73
2017-10-23T04:51:18.552Z,6.93
2017-10-23T04:53:45.969Z,7.27
2017-10-23T04:56:13.392Z,6.67
2017-10-23T04:58:40.813Z,7.77
2017-10-23T05:01:08.233Z,6.13
2017-10-23T05:03:35.670Z,7.13
2017-10-23T05:06:03.086Z,6.95
2017-10-23T05:08:30.504Z,6.67
2017-10-23T05:10:57.942Z,7.70
2017-10-23T05:13:25.369Z,6.57
2017-10-23T05:15:52.784Z,7.05
2017-10-23T05:18:20.212Z,6.90
2017-10-23T05:20:47.616Z,6.87
2017-10-23T05:23:15.036Z,7.50
2017-10-23T05:25:42.461Z,7.53
2017-10-23T05:28:09.883Z,5.95
2017-10-23T05:30:37.317Z,8.20
2017-10-23T05:33:04.762Z,6.65
2017-10-23T05:35:32.172Z,9.67
2017-10-23T05:37:59.605Z,7.00
2017-10-23T05:40:27.029Z,7.20
2017-10-23T05:42:54.440Z,7.20
2017-10-23T05:45:21.876Z,6.83
2017-10-23T05:47:49.283Z,6.93
2017-10-23T05:50:16.706Z,7.37
2017-10-23T05:52:44.146Z,6.87
2017-10-23T05:55:11.557Z,7.20
2017-10-23T05:57:38.993Z,6.82
2017-10-23T06:00:06.416Z,7.10
2017-10-23T06:02:33.825Z,6.23
2017-10-23T06:05:01.237Z,6.10
2017-10-23T06:07:28.670Z,6.80
2017-10-23T06:09:56.090Z,7.70
2017-10-23T06:12:23.514Z,7.22
2017-10-23T06:14:50.957Z,6.60
2017-10-23T06:17:18.376Z,7.73
2017-10-23T06:19:45.780Z,7.53
2017-10-23T06:22:13.221Z,7.20
2017-10-23T06:24:40.631Z,7.60
2017-10-23T06:27:08.047Z,7.57
2017-10-23T06:29:35.482Z,7.63
2017-10-23T06:32:02.911Z,6.78
2017-10-23T06:34:30.324Z,7.10
2017-10-23T06:36:57.765Z,7.00
2017-10-23T06:39:25.188Z,6.40
2017-10-23T06:41:52.605Z,6.30
2017-10-23T06:44:20.028Z,6.40
2017-10-23T06:46:47.444Z,6.50
2017-10-23T06:49:14.865Z,6.90
2017-10-23T06:51:42.289Z,8.07
2017-10-23T06:54:09.709Z,6.70
2017-10-23T06:56:37.126Z,6.80
2017-10-23T06:59:04.562Z,7.50
2017-10-23T07:01:31.973Z,7.07
2017-10-23T07:03:59.351Z,7.70
2017-10-23T07:06:26.813Z,7.70
2017-10-23T07:08:54.228Z,6.37
2017-10-23T07:11:21.636Z,6.37
2017-10-23T07:13:49.104Z,7.17
2017-10-23T07:16:16.533Z,6.43
2017-10-23T07:18:43.944Z,7.00
2017-10-23T07:21:11.382Z,6.57
2017-10-23T07:23:38.804Z,7.23
2017-10-23T07:26:06.218Z,6.23
2017-10-23T07:28:33.653Z,6.20
2017-10-23T07:31:01.072Z,6.67
2017-10-23T07:33:28.489Z,6.90
2017-10-23T07:35:56.784Z,6.13
2017-10-23T07:38:24.205Z,6.20
2017-10-23T07:40:51.612Z,6.23
2017-10-23T07:43:19.049Z,6.23
2017-10-23T07:45:46.470Z,6.83
2017-10-23T07:48:13.879Z,6.80
2017-10-23T07:50:41.328Z,6.43
2017-10-23T07:53:08.745Z,6.90
2017-10-23T07:55:36.247Z,6.50
2017-10-23T07:58:03.705Z,7.13
2017-10-23T08:00:31.128Z,6.70
2017-10-23T08:02:58.544Z,6.87
2017-10-23T08:05:25.980Z,7.30
2017-10-23T08:07:53.392Z,7.20
2017-10-23T08:10:20.812Z,7.40
2017-10-23T08:12:48.249Z,7.60
2017-10-23T08:15:15.665Z,7.60
2017-10-23T08:17:43.080Z,7.20
2017-10-23T08:20:10.522Z,7.77
2017-10-23T08:22:37.936Z,7.73
2017-10-23T08:25:05.356Z,7.20
2017-10-23T08:27:32.789Z,6.63
2017-10-23T08:30:00.206Z,6.87
2017-10-23T08:32:27.631Z,7.30
2017-10-23T08:34:55.064Z,6.10
2017-10-23T08:37:22.482Z,6.50
2017-10-23T08:39:49.900Z,5.97
2017-10-23T08:42:17.336Z,6.47
2017-10-23T08:44:45.401Z,5.50
2017-10-23T08:47:12.825Z,6.27
2017-10-23T08:49:40.252Z,5.53
2017-10-23T08:52:07.673Z,6.20
2017-10-23T08:54:35.088Z,5.70
2017-10-23T08:57:02.516Z,4.83
2017-10-23T08:59:29.937Z,5.80
2017-10-23T09:01:57.353Z,6.37
2017-10-23T09:04:24.780Z,6.23
2017-10-23T09:06:52.213Z,6.07
2017-10-23T09:09:19.649Z,5.67
2017-10-23T09:11:47.085Z,5.97
2017-10-23T09:14:14.522Z,4.67
2017-10-23T09:16:41.945Z,5.97
2017-10-23T09:19:09.356Z,5.60
2017-10-23T09:21:36.768Z,5.87
2017-10-23T09:24:04.196Z,5.50
2017-10-23T09:26:31.614Z,5.50
2017-10-23T09:28:59.028Z,5.50
2017-10-23T09:31:26.464Z,5.53
2017-10-23T09:33:53.880Z,5.40
2017-10-23T09:36:21.309Z,6.33
2017-10-23T09:38:48.749Z,7.30
2017-10-23T09:41:16.169Z,5.87
2017-10-23T09:43:43.583Z,6.63
2017-10-23T09:46:11.010Z,6.80
2017-10-23T09:48:38.424Z,6.33
2017-10-23T09:51:05.841Z,5.97
2017-10-23T09:53:33.282Z,5.67
2017-10-23T09:56:00.697Z,5.87
2017-10-23T09:58:28.113Z,5.77
2017-10-23T10:00:55.545Z,5.13
2017-10-23T10:03:22.968Z,5.50
2017-10-23T10:05:50.373Z,5.20
2017-10-23T10:08:17.807Z,6.40
2017-10-23T10:10:45.229Z,6.80
2017-10-23T10:13:12.644Z,6.27
2017-10-23T10:15:40.085Z,6.17
2017-10-23T10:18:07.500Z,5.80
2017-10-23T10:20:34.921Z,6.13
2017-10-23T10:23:02.359Z,6.03
2017-10-23T10:25:29.776Z,5.50
2017-10-23T10:27:57.211Z,6.30
2017-10-23T10:30:24.652Z,6.47
2017-10-23T10:32:52.062Z,5.60
2017-10-23T10:35:19.500Z,6.20
2017-10-23T10:37:46.924Z,7.03
2017-10-23T10:40:14.340Z,6.40
2017-10-23T10:42:41.774Z,5.73
2017-10-23T10:45:09.195Z,5.90
2017-10-23T10:47:36.613Z,6.57
2017-10-23T10:50:04.048Z,5.60
2017-10-23T10:52:31.461Z,5.03
2017-10-23T10:54:58.872Z,5.13
2017-10-23T10:57:26.317Z,5.80
2017-10-23T10:59:53.732Z,6.20
2017-10-23T11:02:21.149Z,6.20
2017-10-23T11:04:48.571Z,5.70
2017-10-23T11:07:15.989Z,5.33
2017-10-23T11:09:43.406Z,5.50
2017-10-23T11:12:10.836Z,5.30
2017-10-23T11:14:38.256Z,5.70
2017-10-23T11:17:05.672Z,5.70
2017-10-23T11:19:33.108Z,6.30
2017-10-23T11:22:00.521Z,6.10
2017-10-23T11:24:27.941Z,6.40
2017-10-23T11:26:55.379Z,7.27
2017-10-23T11:29:22.801Z,6.50
2017-10-23T11:31:50.221Z,6.53
2017-10-23T11:34:17.657Z,5.80
2017-10-23T11:36:45.082Z,6.17
2017-10-23T11:39:12.491Z,7.90
2017-10-23T11:41:39.921Z,5.77
2017-10-23T11:44:07.341Z,6.30
2017-10-23T11:46:34.761Z,5.50
2017-10-23T11:49:02.201Z,5.80
2017-10-23T11:51:29.639Z,5.53
2017-10-23T11:53:57.053Z,4.87
2017-10-23T11:56:24.493Z,5.70
2017-10-23T11:58:51.922Z,5.50
2017-10-23T12:01:19.332Z,5.70
2017-10-23T12:03:46.768Z,5.90
2017-10-23T12:06:14.182Z,6.33
2017-10-23T12:08:41.592Z,5.63
2017-10-23T12:11:09.020Z,5.87
2017-10-23T12:13:36.471Z,5.90
2017-10-23T12:16:03.889Z,5.50
2017-10-23T12:18:31.320Z,5.37
2017-10-23T12:20:58.737Z,4.50
2017-10-23T12:23:26.150Z,4.87
2017-10-23T12:25:53.578Z,5.03
2017-10-23T12:28:20.997Z,5.37
2017-10-23T12:30:48.417Z,4.47
2017-10-23T12:33:15.852Z,6.30
2017-10-23T12:35:43.268Z,5.83
2017-10-23T12:38:10.682Z,4.80
2017-10-23T12:40:38.116Z,4.90
2017-10-23T12:43:05.532Z,5.07
2017-10-23T12:45:32.949Z,4.93
2017-10-23T12:48:00.391Z,4.77
2017-10-23T12:50:27.800Z,3.97
2017-10-23T12:52:55.220Z,4.30
2017-10-23T12:55:22.658Z,4.70
2017-10-23T12:57:50.068Z,4.50
2017-10-23T13:00:17.476Z,4.30
2017-10-23T13:02:44.918Z,4.80
2017-10-23T13:05:12.337Z,11.60
2017-10-23T13:07:39.753Z,4.57
2017-10-23T13:10:07.195Z,5.23
2017-10-23T13:12:34.615Z,5.93
2017-10-23T13:15:02.042Z,5.23
2017-10-23T13:17:29.464Z,4.80
2017-10-23T13:19:56.898Z,4.87
2017-10-23T13:22:24.333Z,5.37
2017-10-23T13:24:51.762Z,4.50
2017-10-23T13:27:19.202Z,5.33
2017-10-23T13:29:46.625Z,6.00
2017-10-23T13:32:14.045Z,6.13
2017-10-23T13:34:41.484Z,4.97
2017-10-23T13:37:08.892Z,4.80
2017-10-23T13:39:36.308Z,5.30
2017-10-23T13:42:03.749Z,5.73
2017-10-23T13:44:31.230Z,5.97
2017-10-23T13:46:58.632Z,5.10
2017-10-23T13:49:26.065Z,4.90
2017-10-23T13:51:53.488Z,5.03
2017-10-23T13:54:20.920Z,5.70
2017-10-23T13:56:48.349Z,5.33
2017-10-23T13:59:15.765Z,5.80
2017-10-23T14:01:43.199Z,5.17
2017-10-23T14:04:10.616Z,5.43
2017-10-23T14:06:38.035Z,5.77
2017-10-23T14:09:05.464Z,4.53
2017-10-23T14:11:32.875Z,5.20
2017-10-23T14:14:00.313Z,5.87
2017-10-23T14:16:27.744Z,5.37
2017-10-23T14:18:55.123Z,4.40
2017-10-23T14:21:22.625Z,4.33
2017-10-23T14:23:50.061Z,4.90
2017-10-23T14:26:17.474Z,4.80
2017-10-23T14:28:44.960Z,5.03
2017-10-23T14:31:12.396Z,4.57
2017-10-23T14:33:39.825Z,5.30
2017-10-23T14:36:07.241Z,5.90
2017-10-23T14:38:34.668Z,5.80
2017-10-23T14:41:02.100Z,6.10
2017-10-23T14:43:29.508Z,4.80
2017-10-23T14:45:56.945Z,5.30
2017-10-23T14:48:24.361Z,5.50
2017-10-23T14:50:51.780Z,6.30
2017-10-23T14:53:19.208Z,4.60
2017-10-23T14:55:46.624Z,5.07
2017-10-23T14:58:14.041Z,5.33
2017-10-23T15:00:41.500Z,4.70
2017-10-23T15:03:08.907Z,5.73
2017-10-23T15:05:36.344Z,6.27
2017-10-23T15:08:03.786Z,6.70
2017-10-23T15:10:31.233Z,5.30
2017-10-23T15:12:58.663Z,5.90
2017-10-23T15:15:26.095Z,6.40
2017-10-23T15:17:53.517Z,6.30
2017-10-23T15:20:20.953Z,6.27
2017-10-23T15:22:48.379Z,6.50
2017-10-23T15:25:15.895Z,6.30
2017-10-23T15:27:43.332Z,6.80
2017-10-23T15:30:10.760Z,6.50
2017-10-23T15:32:38.180Z,5.83
2017-10-23T15:35:05.605Z,4.80
2017-10-23T15:37:33.043Z,5.30
2017-10-23T15:40:00.460Z,5.30
2017-10-23T15:42:27.896Z,5.80
2017-10-23T15:44:55.316Z,5.57
2017-10-23T15:47:22.733Z,6.03
2017-10-23T15:49:50.168Z,7.30
2017-10-23T15:52:17.581Z,6.60
2017-10-23T15:54:45.005Z,6.30
2017-10-23T15:57:12.437Z,6.17
2017-10-23T15:59:39.852Z,5.63
2017-10-23T16:02:07.269Z,5.40
2017-10-23T16:04:34.705Z,4.90
2017-10-23T16:07:02.121Z,5.60
2017-10-23T16:09:29.537Z,5.40
2017-10-23T16:11:56.965Z,5.80
2017-10-23T16:14:24.390Z,6.00
2017-10-23T16:16:51.810Z,5.90
2017-10-23T16:19:19.237Z,5.43
2017-10-23T16:21:46.665Z,5.00
2017-10-23T16:24:14.080Z,4.83
2017-10-23T16:26:41.508Z,5.80
2017-10-23T16:29:09.908Z,4.33
2017-10-23T16:31:37.312Z,5.60
2017-10-23T16:34:04.749Z,5.20
2017-10-23T16:36:32.174Z,5.43
2017-10-23T16:38:59.580Z,4.90
2017-10-23T16:41:27.020Z,5.03
2017-10-23T16:43:54.432Z,5.40
2017-10-23T16:46:21.893Z,6.23
2017-10-23T16:48:49.324Z,5.10
2017-10-23T16:51:16.753Z,5.20
2017-10-23T16:53:44.191Z,6.00
2017-10-23T16:56:11.614Z,5.50
2017-10-23T16:58:39.020Z,5.67
2017-10-23T17:01:06.456Z,4.73
2017-10-23T17:03:33.879Z,5.00
2017-10-23T17:06:01.296Z,5.60
2017-10-23T17:08:28.759Z,6.07
2017-10-23T17:10:56.173Z,5.60
2017-10-23T17:13:23.593Z,6.00
2017-10-23T17:15:51.028Z,5.03
2017-10-23T17:18:18.447Z,5.60
2017-10-23T17:20:45.861Z,5.90
2017-10-23T17:23:13.296Z,5.70
2017-10-23T17:25:40.710Z,6.30
2017-10-23T17:28:08.490Z,6.67
2017-10-23T17:30:35.925Z,6.37
2017-10-23T17:33:03.354Z,5.90
2017-10-23T17:35:30.780Z,6.53
2017-10-23T17:37:59.052Z,6.70
2017-10-23T17:40:26.481Z,6.77
2017-10-23T17:42:54.083Z,6.27
2017-10-23T17:45:21.513Z,6.60
2017-10-23T17:47:49.016Z,6.30
2017-10-23T17:50:16.445Z,6.77
2017-10-23T17:52:43.890Z,6.00
2017-10-23T17:55:11.311Z,6.10
2017-10-23T17:57:38.742Z,6.40
2017-10-23T18:00:06.176Z,5.57
2017-10-23T18:02:33.627Z,6.50
2017-10-23T18:05:01.044Z,6.40
2017-10-23T18:07:28.596Z,6.20
2017-10-23T18:09:56.162Z,6.07
2017-10-23T18:12:23.605Z,6.20
2017-10-23T18:14:51.157Z,7.53
2017-10-23T18:17:18.584Z,6.33
2017-10-23T18:19:46.000Z,5.60
2017-10-23T18:22:13.466Z,5.60
2017-10-23T18:24:40.913Z,6.17
2017-10-23T18:27:08.446Z,5.60
2017-10-23T18:29:36.252Z,5.70
2017-10-23T18:32:03.799Z,5.37
2017-10-23T18:34:31.396Z,5.60
2017-10-23T18:36:58.977Z,6.40
2017-10-23T18:39:26.580Z,4.80
2017-10-23T18:41:54.876Z,5.63
2017-10-23T18:44:22.555Z,6.00
2017-10-23T18:46:52.533Z,5.00
2017-10-23T18:49:20.589Z,5.50
2017-10-23T18:51:48.727Z,5.80
2017-10-23T18:54:16.857Z,5.37
2017-10-23T18:56:45.152Z,5.40
2017-10-23T18:59:13.263Z,5.80
2017-10-23T19:01:41.197Z,5.63
2017-10-23T19:04:08.890Z,5.67
2017-10-23T19:06:36.585Z,6.30
2017-10-23T19:09:04.490Z,5.40
2017-10-23T19:11:32.255Z,5.03
2017-10-23T19:14:00.265Z,5.97
2017-10-23T19:16:28.511Z,5.80
2017-10-23T19:18:56.553Z,5.60
2017-10-23T19:21:24.448Z,5.20
2017-10-23T19:23:52.876Z,5.63
2017-10-23T19:26:20.987Z,7.10
2017-10-23T19:28:49.106Z,6.50
2017-10-23T19:31:17.191Z,5.60
2017-10-23T19:33:45.035Z,5.73
2017-10-23T19:36:13.349Z,5.17
2017-10-23T19:38:41.453Z,5.43
2017-10-23T19:41:09.461Z,5.83
2017-10-23T19:43:37.479Z,5.33
2017-10-23T19:46:05.777Z,5.37
2017-10-23T19:48:33.934Z,5.70
2017-10-23T19:51:02.192Z,5.23
2017-10-23T19:53:30.597Z,5.10
2017-10-23T19:55:58.774Z,5.87
2017-10-23T19:58:26.956Z,5.87
2017-10-23T20:00:55.095Z,5.73
2017-10-23T20:03:23.114Z,5.77
2017-10-23T20:05:50.900Z,5.40
2017-10-23T20:08:18.466Z,5.80
2017-10-23T20:10:45.919Z,5.70
2017-10-23T20:13:13.442Z,5.97
2017-10-23T20:15:40.895Z,5.37
2017-10-23T20:18:08.316Z,5.67
2017-10-23T20:20:35.790Z,5.97
2017-10-23T20:23:03.235Z,6.57
2017-10-23T20:25:30.666Z,6.27
2017-10-23T20:27:58.084Z,6.37
2017-10-23T20:30:25.521Z,6.10
2017-10-23T20:32:52.937Z,5.73
2017-10-23T20:35:20.353Z,6.40
2017-10-23T20:37:47.799Z,5.90
2017-10-23T20:40:15.216Z,6.10
2017-10-23T20:42:42.661Z,5.70
2017-10-23T20:45:10.126Z,5.90
2017-10-23T20:47:37.541Z,5.60
2017-10-23T20:50:04.968Z,6.30
2017-10-23T20:52:32.409Z,6.33
2017-10-23T20:54:59.825Z,6.37
2017-10-23T20:57:27.244Z,6.00
2017-10-23T20:59:54.677Z,5.77
2017-10-23T21:02:22.089Z,5.83
2017-10-23T21:04:49.501Z,6.13
2017-10-23T21:07:16.928Z,6.47
2017-10-23T21:09:44.350Z,5.40
2017-10-23T21:12:11.772Z,5.77
2017-10-23T21:14:39.215Z,5.47
2017-10-23T21:17:06.641Z,5.47
2017-10-23T21:19:34.068Z,6.10
2017-10-23T21:22:01.496Z,5.30
2017-10-23T21:24:28.942Z,5.27
2017-10-23T21:26:56.408Z,5.03
2017-10-23T21:29:23.854Z,5.97
2017-10-23T21:31:51.268Z,5.87
2017-10-23T21:34:18.703Z,5.53
2017-10-23T21:36:46.112Z,4.87
2017-10-23T21:39:13.528Z,5.30
2017-10-23T21:41:40.953Z,5.40
2017-10-23T21:44:08.365Z,5.47
2017-10-23T21:46:47.543Z,5.30
2017-10-23T21:49:14.965Z,5.43
2017-10-23T21:51:42.382Z,5.10
2017-10-23T21:54:09.833Z,5.70
2017-10-23T21:56:37.256Z,5.50
2017-10-23T21:59:04.709Z,5.60
2017-10-23T22:01:32.141Z,5.87
2017-10-23T22:03:59.565Z,5.10
2017-10-23T22:06:26.997Z,5.37
2017-10-23T22:08:54.537Z,5.47
2017-10-23T22:11:21.992Z,5.27
2017-10-23T22:13:49.447Z,5.33
2017-10-23T22:16:16.936Z,5.13
2017-10-23T22:18:44.365Z,4.87
2017-10-23T22:21:12.141Z,5.13
2017-10-23T22:23:39.576Z,5.00
2017-10-23T22:26:07.004Z,5.33
2017-10-23T22:28:34.441Z,4.90
2017-10-23T22:31:01.912Z,4.97
2017-10-23T22:33:29.349Z,5.30
2017-10-23T22:35:57.637Z,5.47
2017-10-23T22:38:25.112Z,5.40
2017-10-23T22:40:52.531Z,4.50
2017-10-23T22:43:19.972Z,5.87
2017-10-23T22:45:47.384Z,5.20
2017-10-23T22:48:14.825Z,4.67
2017-10-23T22:50:42.281Z,4.40
2017-10-23T22:53:09.713Z,5.20
2017-10-23T22:55:37.124Z,5.20
2017-10-23T22:58:04.560Z,5.67
2017-10-23T23:00:31.983Z,5.40
2017-10-23T23:02:59.397Z,5.20
2017-10-23T23:05:26.880Z,5.90
2017-10-23T23:07:54.296Z,5.40
2017-10-23T23:10:21.718Z,5.13
2017-10-23T23:12:49.162Z,5.97
2017-10-23T23:15:16.576Z,5.07
2017-10-23T23:17:44.004Z,5.60
2017-10-23T23:20:11.436Z,5.00
2017-10-23T23:22:38.853Z,4.93
2017-10-23T23:25:06.292Z,5.20
2017-10-23T23:27:33.709Z,5.80
2017-10-23T23:30:01.135Z,6.33
2017-10-23T23:32:28.568Z,7.73
2017-10-23T23:34:55.986Z,6.40
2017-10-23T23:37:23.404Z,6.77
2017-10-23T23:39:50.841Z,6.67
2017-10-23T23:42:18.259Z,6.17
2017-10-23T23:44:45.677Z,7.10
2017-10-23T23:47:13.133Z,5.90
2017-10-23T23:49:40.548Z,6.70
2017-10-23T23:52:07.977Z,6.20
2017-10-23T23:54:35.399Z,4.90
2017-10-23T23:57:02.809Z,5.27
2017-10-23T23:59:30.246Z,5.80
